Список аэропортов
Фактическая погода:

23 февраля, 18:00
Температура: +19°C (+19.0*)
Ветер: южный 2 м/с
Давление: *770 мм
Без существ. явл.
Время (МСК)Темп. СВетерВлажностьДавлениеОблачностьОсадки
15:00+13ЮЗ, 1 м/с36%1030 гПаоблачно
16:00+15ЮЗ, 1 м/с32%1029 гПаоблачно
17:00+17З, 1 м/с30%1028 гПаоблачно
18:00+18З, 1 м/с28%1028 гПаоблачно
19:00+19С, 3 м/с28%1028 гПаоблачно
20:00+18С, 4 м/с30%1028 гПаоблачно
21:00+16С, 4 м/с33%1028 гПаоблачно
22:00+14С, 5 м/с34%1028 гПаоблачно
23:00+13С, 4 м/с37%1029 гПаоблачно
24 февраля
00:00+12С, 3 м/с42%1030 гПаоблачно
01:00+10СВ, 3 м/с49%1031 гПаоблачно
02:00+9СВ, 3 м/с55%1032 гПас прояснениями
03:00+8СВ, 3 м/с60%1032 гПамалооблачно
04:00+7СВ, 3 м/с64%1033 гПаясно
05:00+6С, 3 м/с68%1033 гПаясно
06:00+5С, 3 м/с71%1032 гПаясно
07:00+4СВ, 2 м/с74%1033 гПаясно
08:00+4С, 3 м/с75%1034 гПамалооблачно
09:00+3С, 3 м/с73%1034 гПаоблачно
10:00+3С, 2 м/с75%1035 гПас прояснениями
11:00+4СВ, 2 м/с74%1035 гПамалооблачно
12:00+6С, 3 м/с64%1035 гПаоблачно
13:00+8С, 3 м/с63%1034 гПаоблачно
14:00+10С, 2 м/с68%1033 гПаоблачно
15:00+13СВ, 3 м/с61%1033 гПаоблачно
16:00+15В, 3 м/с47%1032 гПас прояснениями
17:00+16В, 2 м/с32%1031 гПаоблачно
18:00+17В, 2 м/с25%1031 гПаоблачно
19:00+17ЮВ, 2 м/с23%1031 гПаоблачно
20:00+16В, 2 м/с27%1031 гПаоблачно
21:00+14СВ, 1 м/с34%1032 гПаоблачно
22:00+12С, 2 м/с41%1033 гПаоблачно
23:00+10С, 2 м/с52%1034 гПамалооблачно
25 февраля
00:00+8С, 2 м/с64%1035 гПамалооблачно
01:00+7СВ, 1 м/с69%1035 гПамалооблачно
02:00+6СВ, 2 м/с72%1036 гПаясно
03:00+5С, 2 м/с75%1037 гПаясно
04:00+4С, 2 м/с80%1037 гПаясно
05:00+3С, 2 м/с85%1037 гПаясно
06:00+3С, 2 м/с88%1037 гПаясно
07:00+2С, 2 м/с91%1037 гПаясно
08:00+1С, 2 м/с94%1037 гПаясно
09:00+1С, 2 м/с95%1037 гПаясно
10:000С, 2 м/с96%1037 гПаясно
11:00+1С, 2 м/с94%1037 гПаясно
12:00+5СВ, 2 м/с75%1035 гПаясно
13:00+9СВ, 1 м/с58%1034 гПаясно
14:00+12В, 1 м/с49%1033 гПаясно
15:00+14Штиль 43%1032 гПаясно